This is the latest recevied weather packets stored in our database for station/object W9KHP-1. If no packets are shown the sender has not sent any weather packets the latest 10 day(s).
| Time | Temp. | Humidity | Pressure | Rain* | Wind** | Luminosity | Snow |
|---|---|---|---|---|---|---|---|
| 1777642578 | 12.78° C | 66% | 1018 hPa | 0 mm | - | 145 W/m² | - |
| 1777642274 | 12.78° C | 73% | 1017.9 hPa | 0 mm | - | 145 W/m² | - |
| 1777641971 | 12.78° C | 75% | 1018 hPa | 0 mm | - | 81 W/m² | - |
| 1777641666 | 12.78° C | 72% | 1017.9 hPa | 0 mm | - | 86 W/m² | - |
| 1777641362 | 12.22° C | 74% | 1017.6 hPa | 0 mm | - | 139 W/m² | - |
| 1777641057 | 12.22° C | 73% | 1018 hPa | 0 mm | - | 53 W/m² | - |
| 1777640753 | 12.22° C | 74% | 1017.9 hPa | 0 mm | - | 60 W/m² | - |
| 1777640450 | 12.22° C | 75% | 1017.8 hPa | 0 mm | - | 115 W/m² | - |
| 1777640147 | 12.22° C | 76% | 1017.9 hPa | 0 mm | - | 91 W/m² | - |
| 1777639844 | 12.22° C | 79% | 1017.9 hPa | 0 mm | - | 75 W/m² | - |
| 1777639541 | 12.22° C | 77% | 1017.8 hPa | 0 mm | - | 82 W/m² | - |
| 1777639238 | 11.67° C | 80% | 1017.7 hPa | 0 mm | - | 86 W/m² | - |
| 1777638935 | 11.67° C | 80% | 1017.7 hPa | 0 mm | - | 47 W/m² | - |
| 1777638630 | 11.67° C | 78% | 1017.8 hPa | 0 mm | - | 43 W/m² | - |
| 1777638327 | 11.67° C | 80% | 1017.7 hPa | 0 mm | - | 48 W/m² | - |
| 1777638023 | 11.67° C | 79% | 1017.4 hPa | 0 mm | - | 51 W/m² | - |
| 1777637720 | 11.67° C | 81% | 1017.5 hPa | 0 mm | - | 65 W/m² | - |
| 1777637416 | 11.67° C | 79% | 1017.6 hPa | 0 mm | - | 64 W/m² | - |
| 1777637114 | 11.11° C | 81% | 1017.4 hPa | 0 mm | - | 38 W/m² | - |
| 1777636810 | 11.11° C | 82% | 1017.4 hPa | 0 mm | - | 31 W/m² | - |
| 1777636506 | 11.67° C | 82% | 1017.4 hPa | 0 mm | - | 40 W/m² | - |
| 1777636202 | 11.11° C | 82% | 1017.2 hPa | 0 mm | - | 31 W/m² | - |
| 1777635896 | 11.11° C | 84% | 1017.1 hPa | 0 mm | - | 30 W/m² | - |
| 1777635593 | 11.11° C | 84% | 1017 hPa | 0 mm | - | 33 W/m² | - |
| 1777635290 | 11.11° C | 84% | 1016.8 hPa | 0 mm | - | 24 W/m² | - |
* Rain latest hour (hover to see other rain measurements)
** Current wind speed in m/s (hover to see current wind gust speed)